createdAt,value
2023-01-04T00:01:11.001Z,100.00
2023-01-04T00:03:37.763Z,100.00
2023-01-04T00:06:05.933Z,100.00
2023-01-04T00:08:33.597Z,100.00
2023-01-04T00:11:03.868Z,100.00
2023-01-04T00:13:31.550Z,100.00
2023-01-04T00:16:05.346Z,100.00
2023-01-04T00:18:35.199Z,100.00
2023-01-04T00:21:16.350Z,100.00
2023-01-04T00:23:44.631Z,100.00
2023-01-04T00:26:17.486Z,100.00
2023-01-04T00:28:48.366Z,100.00
2023-01-04T00:31:20.624Z,100.00
2023-01-04T00:33:47.142Z,100.00
2023-01-04T00:36:14.630Z,100.00
2023-01-04T00:38:42.340Z,100.00
2023-01-04T00:41:18.876Z,100.00
2023-01-04T00:43:56.826Z,100.00
2023-01-04T00:46:23.378Z,100.00
2023-01-04T00:48:50.898Z,100.00
2023-01-04T00:51:20.763Z,100.00
2023-01-04T00:53:47.232Z,100.00
2023-01-04T00:56:13.808Z,100.00
2023-01-04T00:58:40.335Z,100.00
2023-01-04T01:01:07.644Z,100.00
2023-01-04T01:03:38.431Z,100.00
2023-01-04T01:06:07.903Z,100.00
2023-01-04T01:08:35.649Z,100.00
2023-01-04T01:11:08.232Z,100.00
2023-01-04T01:13:36.484Z,100.00
2023-01-04T01:16:11.703Z,100.00
2023-01-04T01:18:39.913Z,100.00
2023-01-04T01:21:08.030Z,100.00
2023-01-04T01:23:34.849Z,100.00
2023-01-04T01:26:03.377Z,100.00
2023-01-04T01:28:30.687Z,100.00
2023-01-04T01:31:02.383Z,100.00
2023-01-04T01:33:33.609Z,100.00
2023-01-04T01:36:02.066Z,100.00
2023-01-04T01:38:28.884Z,100.00
2023-01-04T01:40:55.427Z,100.00
2023-01-04T01:43:43.096Z,100.00
2023-01-04T01:46:10.690Z,100.00
2023-01-04T01:48:37.360Z,100.00
2023-01-04T01:51:04.653Z,100.00
2023-01-04T01:53:35.738Z,100.00
2023-01-04T01:56:06.067Z,100.00
2023-01-04T01:58:39.524Z,100.00
2023-01-04T02:01:07.677Z,100.00
2023-01-04T02:03:41.279Z,100.00
2023-01-04T02:06:11.752Z,100.00
2023-01-04T02:08:41.108Z,100.00
2023-01-04T02:11:08.493Z,100.00
2023-01-04T02:13:56.616Z,100.00
2023-01-04T02:16:34.838Z,100.00
2023-01-04T02:19:26.817Z,100.00
2023-01-04T02:22:38.961Z,100.00
2023-01-04T02:25:33.324Z,100.00
2023-01-04T02:28:05.289Z,100.00
2023-01-04T02:30:44.779Z,100.00
2023-01-04T02:33:14.587Z,100.00
2023-01-04T02:35:43.679Z,100.00
2023-01-04T02:38:28.950Z,100.00
2023-01-04T02:41:34.099Z,100.00
2023-01-04T02:44:50.218Z,100.00
2023-01-04T02:47:47.234Z,100.00
2023-01-04T02:50:32.300Z,100.00
2023-01-04T02:53:18.705Z,100.00
2023-01-04T02:56:12.732Z,100.00
2023-01-04T02:59:05.734Z,100.00
2023-01-04T03:02:06.352Z,100.00
2023-01-04T03:04:59.496Z,100.00
2023-01-04T03:08:15.903Z,100.00
2023-01-04T03:11:29.014Z,100.00
2023-01-04T03:14:32.320Z,100.00
2023-01-04T03:17:04.611Z,100.00
2023-01-04T03:19:52.014Z,100.00
2023-01-04T03:22:42.272Z,100.00
2023-01-04T03:25:29.797Z,100.00
2023-01-04T03:28:18.361Z,100.00
2023-01-04T03:31:17.013Z,100.00
2023-01-04T03:34:02.619Z,100.00
2023-01-04T03:36:38.768Z,100.00
2023-01-04T03:39:34.838Z,100.00
2023-01-04T03:42:32.848Z,100.00
2023-01-04T03:45:38.597Z,100.00
2023-01-04T03:48:33.231Z,100.00
2023-01-04T03:51:10.291Z,100.00
2023-01-04T03:53:43.349Z,100.00
2023-01-04T03:56:11.321Z,100.00
2023-01-04T03:58:38.381Z,100.00
2023-01-04T04:01:06.224Z,100.00
2023-01-04T04:03:51.329Z,100.00
2023-01-04T04:06:36.337Z,100.00
2023-01-04T04:09:03.556Z,100.00
2023-01-04T04:11:32.788Z,100.00
2023-01-04T04:14:03.045Z,100.00
2023-01-04T04:16:29.789Z,100.00
2023-01-04T04:18:56.488Z,100.00
2023-01-04T04:21:23.261Z,100.00
2023-01-04T04:23:49.780Z,100.00
2023-01-04T04:26:16.904Z,100.00
2023-01-04T04:28:43.718Z,100.00
2023-01-04T04:31:10.298Z,100.00
2023-01-04T04:33:36.884Z,100.00
2023-01-04T04:36:04.247Z,100.00
2023-01-04T04:38:30.766Z,100.00
2023-01-04T04:41:15.862Z,100.00
2023-01-04T04:43:42.492Z,100.00
2023-01-04T04:46:09.073Z,100.00
2023-01-04T04:48:35.628Z,100.00
2023-01-04T04:51:02.118Z,100.00
2023-01-04T04:53:28.943Z,100.00
2023-01-04T04:55:55.468Z,100.00
2023-01-04T04:58:22.213Z,100.00
2023-01-04T05:00:48.753Z,100.00
2023-01-04T05:03:15.765Z,100.00
2023-01-04T05:05:42.448Z,100.00
2023-01-04T05:08:08.975Z,100.00
2023-01-04T05:10:35.433Z,100.00
2023-01-04T05:13:01.984Z,100.00
2023-01-04T05:15:37.063Z,100.00
2023-01-04T05:18:05.489Z,100.00
2023-01-04T05:20:32.360Z,100.00
2023-01-04T05:22:58.905Z,100.00
2023-01-04T05:25:25.798Z,100.00
2023-01-04T05:27:52.311Z,100.00
2023-01-04T05:30:38.440Z,100.00
2023-01-04T05:33:09.419Z,100.00
2023-01-04T05:35:39.027Z,100.00
2023-01-04T05:38:08.901Z,100.00
2023-01-04T05:40:37.517Z,100.00
2023-01-04T05:43:04.040Z,100.00
2023-01-04T05:45:30.529Z,100.00
2023-01-04T05:47:57.078Z,100.00
2023-01-04T05:50:24.455Z,100.00
2023-01-04T05:52:51.798Z,100.00
2023-01-04T05:55:18.971Z,100.00
2023-01-04T05:57:45.583Z,100.00
2023-01-04T06:00:13.473Z,100.00
2023-01-04T06:02:41.545Z,100.00
2023-01-04T06:05:12.593Z,100.00
2023-01-04T06:07:41.969Z,100.00
2023-01-04T06:10:10.663Z,100.00
2023-01-04T06:12:40.469Z,100.00
2023-01-04T06:15:09.272Z,100.00
2023-01-04T06:17:36.356Z,100.00
2023-01-04T06:20:04.839Z,100.00
2023-01-04T06:22:32.785Z,100.00
2023-01-04T06:24:59.511Z,100.00
2023-01-04T06:27:26.104Z,100.00
2023-01-04T06:29:53.160Z,100.00
2023-01-04T06:32:19.699Z,100.00
2023-01-04T06:34:46.218Z,100.00
2023-01-04T06:37:12.887Z,100.00
2023-01-04T06:39:42.391Z,100.00
2023-01-04T06:42:31.678Z,100.00
2023-01-04T06:44:58.286Z,100.00
2023-01-04T06:47:24.829Z,100.00
2023-01-04T06:49:51.609Z,100.00
2023-01-04T06:52:18.127Z,100.00
2023-01-04T06:54:44.680Z,100.00
2023-01-04T06:57:11.193Z,100.00
2023-01-04T06:59:37.701Z,100.00
2023-01-04T07:02:04.423Z,100.00
2023-01-04T07:04:30.978Z,100.00
2023-01-04T07:06:57.964Z,100.00
2023-01-04T07:09:24.584Z,100.00
2023-01-04T07:11:51.105Z,100.00
2023-01-04T07:14:17.669Z,100.00
2023-01-04T07:16:44.271Z,100.00
2023-01-04T07:19:11.257Z,100.00
2023-01-04T07:21:37.773Z,100.00
2023-01-04T07:24:04.358Z,100.00
2023-01-04T07:26:30.841Z,100.00
2023-01-04T07:29:15.673Z,100.00
2023-01-04T07:31:45.644Z,100.00
2023-01-04T07:34:17.252Z,100.00
2023-01-04T07:36:44.212Z,100.00
2023-01-04T07:39:15.589Z,100.00
2023-01-04T07:41:45.436Z,100.00
2023-01-04T07:44:13.087Z,100.00
2023-01-04T07:46:40.364Z,100.00
2023-01-04T07:49:13.069Z,100.00
2023-01-04T07:51:47.071Z,100.00
2023-01-04T07:54:18.057Z,100.00
2023-01-04T07:56:45.954Z,100.00
2023-01-04T07:59:15.500Z,100.00
2023-01-04T08:01:43.322Z,100.00
2023-01-04T08:04:13.167Z,100.00
2023-01-04T08:06:41.619Z,100.00
2023-01-04T08:09:09.191Z,100.00
2023-01-04T08:11:36.156Z,100.00
2023-01-04T08:14:03.472Z,100.00
2023-01-04T08:16:35.702Z,100.00
2023-01-04T08:19:05.598Z,100.00
2023-01-04T08:21:34.819Z,100.00
2023-01-04T08:24:01.573Z,100.00
2023-01-04T08:26:28.736Z,100.00
2023-01-04T08:28:56.502Z,100.00
2023-01-04T08:31:28.531Z,100.00
2023-01-04T08:33:56.552Z,100.00
2023-01-04T08:36:27.602Z,100.00
2023-01-04T08:38:59.850Z,100.00
2023-01-04T08:44:14.002Z,100.00
2023-01-04T08:46:41.263Z,100.00
2023-01-04T08:49:08.083Z,100.00
2023-01-04T08:51:34.934Z,100.00
2023-01-04T08:54:01.549Z,100.00
2023-01-04T08:56:28.016Z,100.00
2023-01-04T08:58:54.580Z,100.00
2023-01-04T09:01:21.190Z,100.00
2023-01-04T09:03:47.801Z,100.00
2023-01-04T09:06:16.029Z,100.00
2023-01-04T09:08:44.378Z,100.00
2023-01-04T09:11:17.234Z,100.00
2023-01-04T09:13:47.302Z,100.00
2023-01-04T09:16:19.844Z,100.00
2023-01-04T09:18:47.212Z,100.00
2023-01-04T09:21:23.048Z,100.00
2023-01-04T09:23:49.614Z,100.00
2023-01-04T09:26:18.951Z,100.00
2023-01-04T09:28:45.755Z,100.00
2023-01-04T09:31:21.079Z,100.00
2023-01-04T09:34:13.300Z,100.00
2023-01-04T09:36:34.221Z,100.00
2023-01-04T09:39:00.743Z,100.00
2023-01-04T09:41:29.569Z,100.00
2023-01-04T09:44:03.666Z,100.00
2023-01-04T09:46:49.896Z,100.00
2023-01-04T09:49:29.008Z,100.00
2023-01-04T09:52:05.389Z,100.00
2023-01-04T09:54:59.121Z,100.00
2023-01-04T09:57:36.630Z,100.00
2023-01-04T10:00:15.217Z,100.00
2023-01-04T10:02:53.032Z,100.00
2023-01-04T10:05:27.311Z,100.00
2023-01-04T10:07:54.110Z,100.00
2023-01-04T10:10:48.914Z,99.47
2023-01-04T10:13:34.345Z,99.43
2023-01-04T10:17:11.316Z,100.00
2023-01-04T10:20:59.686Z,98.10
2023-01-04T10:22:23.915Z,95.96
2023-01-04T10:25:25.863Z,94.63
2023-01-04T10:28:16.292Z,92.32
2023-01-04T10:31:40.149Z,89.63
2023-01-04T10:34:30.220Z,87.62
2023-01-04T10:37:04.859Z,88.08
2023-01-04T10:39:35.868Z,83.67
2023-01-04T10:42:22.242Z,81.88
2023-01-04T10:45:22.420Z,79.39
2023-01-04T10:48:15.411Z,76.89
2023-01-04T10:51:02.119Z,76.95
2023-01-04T10:53:40.665Z,73.96
2023-01-04T10:56:25.677Z,73.74
2023-01-04T10:59:00.420Z,71.89
2023-01-04T11:01:35.079Z,72.28
2023-01-04T11:04:20.270Z,69.48
2023-01-04T11:06:52.940Z,67.50
2023-01-04T11:09:25.794Z,65.54
2023-01-04T11:11:56.424Z,64.18
2023-01-04T11:14:25.556Z,65.00
2023-01-04T11:16:58.459Z,60.39
2023-01-04T11:19:25.158Z,60.70
2023-01-04T11:22:21.206Z,60.42
2023-01-04T11:25:32.952Z,61.16
2023-01-04T11:27:52.729Z,61.86
2023-01-04T11:30:23.757Z,60.84
2023-01-04T11:32:53.254Z,58.93
2023-01-04T11:35:50.606Z,59.69
2023-01-04T11:38:20.274Z,60.31
2023-01-04T11:41:05.764Z,60.43
2023-01-04T11:43:34.821Z,60.74
2023-01-04T11:46:22.173Z,61.42
2023-01-04T11:48:48.941Z,61.60
2023-01-04T11:51:27.531Z,60.65
2023-01-04T11:54:03.380Z,61.18
2023-01-04T11:56:35.427Z,62.77
2023-01-04T11:59:22.872Z,62.94
2023-01-04T12:02:11.007Z,65.25
2023-01-04T12:04:37.700Z,63.79
2023-01-04T12:07:16.465Z,64.91
2023-01-04T12:09:45.866Z,66.46
2023-01-04T12:12:16.056Z,67.12
2023-01-04T12:14:48.666Z,68.02
2023-01-04T12:17:44.989Z,68.36
2023-01-04T12:20:20.291Z,70.46
2023-01-04T12:22:47.314Z,69.97
2023-01-04T12:25:24.031Z,69.15
2023-01-04T12:27:51.865Z,69.22
2023-01-04T12:30:37.056Z,69.05
2023-01-04T12:33:34.319Z,69.06
2023-01-04T12:36:08.057Z,69.56
2023-01-04T12:38:52.850Z,70.92
2023-01-04T12:41:20.844Z,70.45
2023-01-04T12:43:49.925Z,70.17
2023-01-04T12:46:49.991Z,68.84
2023-01-04T12:49:28.500Z,67.71
2023-01-04T12:52:32.416Z,68.29
2023-01-04T12:55:04.810Z,67.72
2023-01-04T12:57:38.468Z,67.58
2023-01-04T13:00:09.976Z,67.67
2023-01-04T13:02:52.355Z,66.59
2023-01-04T13:05:54.982Z,67.19
2023-01-04T13:08:11.983Z,65.27
2023-01-04T13:10:45.862Z,65.56
2023-01-04T13:13:40.054Z,65.58
2023-01-04T13:16:28.720Z,66.55
2023-01-04T13:19:12.397Z,66.97
2023-01-04T13:21:42.285Z,65.13
2023-01-04T13:24:20.842Z,65.83
2023-01-04T13:26:48.444Z,65.91
2023-01-04T13:29:29.338Z,65.38
2023-01-04T13:32:16.271Z,66.58
2023-01-04T13:35:13.953Z,66.49
2023-01-04T13:37:48.286Z,66.20
2023-01-04T13:40:27.186Z,65.85
2023-01-04T13:43:18.540Z,65.92
2023-01-04T13:46:09.855Z,64.26
2023-01-04T13:48:39.161Z,64.70
2023-01-04T13:51:17.698Z,64.90
2023-01-04T13:53:59.074Z,65.62
2023-01-04T13:56:28.560Z,66.03
2023-01-04T13:58:55.372Z,66.45
2023-01-04T14:01:38.622Z,66.37
2023-01-04T14:04:16.391Z,67.49
2023-01-04T14:06:51.260Z,68.32
2023-01-04T14:09:23.146Z,68.82
2023-01-04T14:12:06.179Z,68.76
2023-01-04T14:15:16.693Z,67.99
2023-01-04T14:17:53.158Z,68.49
2023-01-04T14:20:19.614Z,69.38
2023-01-04T14:22:46.644Z,70.52
2023-01-04T14:25:49.555Z,70.41
2023-01-04T14:28:22.545Z,70.79
2023-01-04T14:30:55.430Z,70.35
2023-01-04T14:33:39.337Z,71.48
2023-01-04T14:36:18.509Z,70.55
2023-01-04T14:38:57.021Z,70.80
2023-01-04T14:41:28.758Z,71.10
2023-01-04T14:44:01.128Z,71.24
2023-01-04T14:46:30.198Z,70.82
2023-01-04T14:48:57.361Z,71.09
2023-01-04T14:51:53.104Z,71.23
2023-01-04T14:54:24.908Z,71.32
2023-01-04T14:56:53.339Z,71.67
2023-01-04T14:59:20.111Z,71.12
2023-01-04T15:01:46.940Z,71.13
2023-01-04T15:04:15.777Z,71.94
2023-01-04T15:07:28.286Z,72.46
2023-01-04T15:09:54.825Z,73.26
2023-01-04T15:12:21.365Z,73.36
2023-01-04T15:14:47.881Z,74.23
2023-01-04T15:17:16.760Z,74.59
2023-01-04T15:19:47.569Z,75.09
2023-01-04T15:22:17.759Z,75.33
2023-01-04T15:24:45.580Z,75.74
2023-01-04T15:27:12.083Z,76.34
2023-01-04T15:29:40.924Z,75.40
2023-01-04T15:32:18.553Z,75.37
2023-01-04T15:34:50.349Z,76.99
2023-01-04T15:37:21.919Z,77.59
2023-01-04T15:39:51.527Z,76.65
2023-01-04T15:42:37.975Z,76.08
2023-01-04T15:45:05.421Z,74.87
2023-01-04T15:47:34.478Z,76.01
2023-01-04T15:50:00.973Z,76.36
2023-01-04T15:52:27.495Z,77.08
2023-01-04T15:54:54.059Z,77.71
2023-01-04T15:57:20.550Z,78.20
2023-01-04T15:59:49.904Z,78.39
2023-01-04T16:02:19.418Z,80.39
2023-01-04T16:04:49.602Z,80.24
2023-01-04T16:07:19.204Z,80.08
2023-01-04T16:09:46.969Z,81.78
2023-01-04T16:12:32.006Z,82.65
2023-01-04T16:14:58.511Z,83.34
2023-01-04T16:17:25.333Z,82.19
2023-01-04T16:19:51.835Z,81.82
2023-01-04T16:22:18.375Z,82.80
2023-01-04T16:27:39.001Z,82.80
2023-01-04T16:30:08.611Z,82.98
2023-01-04T16:32:36.385Z,82.08
2023-01-04T16:35:03.826Z,82.33
2023-01-04T16:37:30.725Z,82.73
2023-01-04T16:40:06.299Z,83.92
2023-01-04T16:42:34.304Z,83.24
2023-01-04T16:45:00.922Z,83.46
2023-01-04T16:47:27.505Z,84.31
2023-01-04T16:49:54.404Z,84.77
2023-01-04T16:52:27.174Z,84.60
2023-01-04T16:54:53.787Z,83.38
2023-01-04T16:57:20.287Z,81.80
2023-01-04T16:59:47.827Z,80.97
2023-01-04T17:02:18.734Z,81.26
2023-01-04T17:04:55.050Z,81.69
2023-01-04T17:07:21.716Z,82.13
2023-01-04T17:09:51.033Z,83.12
2023-01-04T17:17:50.819Z,84.64
2023-01-04T17:20:17.365Z,85.11
2023-01-04T17:22:46.079Z,85.54
2023-01-04T17:25:12.665Z,85.46
2023-01-04T17:27:39.245Z,85.75
2023-01-04T17:30:06.681Z,87.71
2023-01-04T17:32:33.202Z,87.35
2023-01-04T17:34:59.701Z,87.18
2023-01-04T17:37:27.063Z,87.04
2023-01-04T17:39:54.559Z,86.25
2023-01-04T17:42:21.351Z,86.52
2023-01-04T17:44:49.445Z,87.58
2023-01-04T17:47:19.390Z,88.16
2023-01-04T17:49:48.979Z,87.93
2023-01-04T17:52:24.340Z,87.95
2023-01-04T17:54:55.446Z,88.34
2023-01-04T17:57:21.932Z,89.16
2023-01-04T17:59:48.506Z,89.81
2023-01-04T18:02:17.654Z,90.06
2023-01-04T18:04:46.258Z,90.37
2023-01-04T18:09:44.916Z,90.68
2023-01-04T18:12:23.130Z,90.57
2023-01-04T18:14:50.219Z,90.51
2023-01-04T18:17:20.437Z,90.27
2023-01-04T18:19:47.767Z,89.28
2023-01-04T18:22:16.472Z,89.59
2023-01-04T18:24:43.307Z,90.38
2023-01-04T18:27:27.701Z,91.83
2023-01-04T18:29:56.550Z,91.44
2023-01-04T18:32:25.392Z,92.10
2023-01-04T18:34:52.168Z,92.81
2023-01-04T18:37:19.282Z,93.01
2023-01-04T18:40:13.669Z,93.90
2023-01-04T18:42:51.799Z,93.98
2023-01-04T18:45:19.399Z,95.23
2023-01-04T18:47:49.286Z,94.40
2023-01-04T18:50:17.886Z,94.75
2023-01-04T18:52:48.495Z,94.17
2023-01-04T18:55:17.215Z,96.31
2023-01-04T18:57:46.444Z,94.49
2023-01-04T19:00:16.545Z,93.31
2023-01-04T19:02:43.354Z,93.73
2023-01-04T19:05:12.315Z,94.76
2023-01-04T19:07:39.473Z,95.45
2023-01-04T19:10:07.556Z,95.16
2023-01-04T19:12:35.580Z,92.52
2023-01-04T19:15:02.298Z,93.44
2023-01-04T19:17:29.084Z,92.66
2023-01-04T19:19:55.864Z,93.35
2023-01-04T19:22:22.717Z,94.18
2023-01-04T19:24:49.527Z,94.43
2023-01-04T19:27:20.625Z,95.31
2023-01-04T19:29:51.236Z,95.12
2023-01-04T19:32:21.177Z,94.73
2023-01-04T19:34:48.612Z,94.45
2023-01-04T19:37:16.148Z,93.96
2023-01-04T19:39:43.368Z,95.01
2023-01-04T19:42:09.911Z,96.23
2023-01-04T19:44:36.473Z,95.86
2023-01-04T19:47:03.125Z,94.30
2023-01-04T19:49:29.729Z,94.59
2023-01-04T19:51:56.239Z,93.65
2023-01-04T19:54:25.529Z,91.57
2023-01-04T19:56:53.114Z,91.09
2023-01-04T19:59:20.044Z,92.35
2023-01-04T20:01:47.917Z,92.69
2023-01-04T20:04:14.553Z,93.02
2023-01-04T20:06:41.224Z,91.88
2023-01-04T20:09:10.201Z,91.90
2023-01-04T20:11:36.833Z,91.61
2023-01-04T20:14:03.629Z,91.73
2023-01-04T20:16:30.198Z,90.87
2023-01-04T20:18:57.951Z,90.66
2023-01-04T20:21:24.701Z,91.22
2023-01-04T20:23:51.249Z,92.73
2023-01-04T20:26:21.304Z,92.80
2023-01-04T20:28:51.937Z,92.24
2023-01-04T20:31:21.385Z,92.64
2023-01-04T20:33:48.901Z,91.93
2023-01-04T20:36:22.193Z,92.89
2023-01-04T20:38:51.888Z,92.82
2023-01-04T20:41:21.239Z,93.79
2023-01-04T20:43:49.101Z,93.94
2023-01-04T20:46:19.018Z,93.14
2023-01-04T20:48:47.814Z,93.14
2023-01-04T20:51:18.518Z,94.30
2023-01-04T20:53:45.268Z,95.00
2023-01-04T20:56:23.484Z,95.09
2023-01-04T20:58:50.735Z,94.65
2023-01-04T21:01:22.357Z,96.93
2023-01-04T21:03:49.579Z,98.11
2023-01-04T21:06:23.116Z,98.88
2023-01-04T21:08:54.779Z,99.31
2023-01-04T21:11:21.617Z,100.00
2023-01-04T21:13:50.313Z,100.00
2023-01-04T21:16:19.899Z,100.00
2023-01-04T21:18:48.791Z,100.00
2023-01-04T21:21:20.352Z,100.00
2023-01-04T21:23:57.597Z,100.00
2023-01-04T21:26:24.796Z,100.00
2023-01-04T21:28:51.664Z,100.00
2023-01-04T21:31:22.553Z,100.00
2023-01-04T21:33:53.604Z,100.00
2023-01-04T21:36:25.541Z,100.00
2023-01-04T21:38:54.074Z,100.00
2023-01-04T21:41:24.983Z,100.00
2023-01-04T21:43:53.781Z,100.00
2023-01-04T21:46:23.969Z,100.00
2023-01-04T21:48:55.261Z,100.00
2023-01-04T21:51:22.119Z,100.00
2023-01-04T21:53:50.612Z,100.00
2023-01-04T21:56:20.368Z,100.00
2023-01-04T21:58:46.910Z,100.00
2023-01-04T22:01:16.324Z,100.00
2023-01-04T22:03:43.526Z,100.00
2023-01-04T22:06:12.784Z,100.00
2023-01-04T22:08:40.615Z,100.00
2023-01-04T22:11:08.062Z,100.00
2023-01-04T22:13:35.180Z,100.00
2023-01-04T22:16:11.110Z,100.00
2023-01-04T22:18:38.052Z,100.00
2023-01-04T22:21:07.623Z,100.00
2023-01-04T22:23:34.657Z,100.00
2023-01-04T22:26:01.747Z,100.00
2023-01-04T22:28:34.644Z,100.00
2023-01-04T22:31:06.951Z,100.00
2023-01-04T22:33:38.132Z,100.00
2023-01-04T22:36:15.416Z,100.00
2023-01-04T22:38:46.514Z,100.00
2023-01-04T22:41:16.256Z,100.00
2023-01-04T22:43:43.829Z,100.00
2023-01-04T22:46:17.301Z,100.00
2023-01-04T22:48:44.754Z,100.00
2023-01-04T22:51:14.591Z,100.00
2023-01-04T22:53:41.128Z,100.00
2023-01-04T22:56:21.826Z,100.00
2023-01-04T22:58:53.390Z,100.00
2023-01-04T23:01:23.424Z,100.00
2023-01-04T23:03:54.078Z,100.00
2023-01-04T23:06:21.674Z,100.00
2023-01-04T23:08:48.784Z,100.00
2023-01-04T23:11:17.656Z,100.00
2023-01-04T23:13:44.852Z,100.00
2023-01-04T23:16:14.160Z,100.00
2023-01-04T23:18:40.818Z,100.00
2023-01-04T23:21:07.688Z,100.00
2023-01-04T23:23:34.690Z,100.00
2023-01-04T23:26:10.701Z,100.00
2023-01-04T23:28:37.297Z,100.00
2023-01-04T23:31:06.394Z,100.00
2023-01-04T23:33:36.291Z,100.00
2023-01-04T23:36:16.166Z,100.00
2023-01-04T23:38:44.046Z,100.00
2023-01-04T23:41:11.545Z,100.00
2023-01-04T23:43:38.853Z,100.00
2023-01-04T23:46:16.825Z,100.00
2023-01-04T23:48:43.927Z,100.00
2023-01-04T23:51:13.086Z,100.00
2023-01-04T23:53:39.688Z,100.00
2023-01-04T23:56:11.999Z,100.00
2023-01-04T23:58:38.492Z,100.00
